Time;durP1;ratioP1;P1;durP2;ratioP2;P2;SDS_P1;SDS_P2;PMS_P1;PMS_P2;Temp;Humidity;BMP_temperature;BMP_pressure;BME280_temperature;BME280_humidity;BME280_pressure;Samples;Min_cycle;Max_cycle;Signal;HPM_P1;HPM_P2
2021/08/23 00:03:59;;;;;;;13.20;11.38;;;;;;;16.58;88.01;101180.09;686813;28;1322;-82
2021/08/23 00:04:19;;;;;;;12.67;10.90;;;;;;;16.57;87.61;101181.00;688227;28;3393;-83
2021/08/23 00:04:39;;;;;;;11.52;9.38;;;;;;;16.58;87.40;101183.59;688102;28;4378;-83
2021/08/23 00:05:00;;;;;;;10.53;8.57;;;;;;;16.59;87.30;101179.22;682584;28;2143;-82
2021/08/23 00:05:20;;;;;;;10.10;8.52;;;;;;;16.59;88.99;101179.22;679785;28;4404;-83
2021/08/23 00:05:41;;;;;;;10.40;9.30;;;;;;;16.58;89.46;101178.31;684105;28;1911;-83
2021/08/23 00:06:01;;;;;;;11.05;9.85;;;;;;;16.56;88.84;101174.84;683720;28;1105;-82
2021/08/23 00:06:21;;;;;;;12.13;10.83;;;;;;;16.56;87.89;101185.41;680700;28;1174;-82
2021/08/23 00:06:42;;;;;;;12.10;10.90;;;;;;;16.54;88.33;101179.28;679722;28;1159;-83
2021/08/23 00:07:04;;;;;;;12.80;11.15;;;;;;;16.54;88.32;101175.78;679548;29;1059;-82
2021/08/23 00:07:24;;;;;;;13.00;11.00;;;;;;;16.57;88.29;101189.78;675756;29;1038;-82
2021/08/23 00:07:44;;;;;;;12.57;10.85;;;;;;;16.66;87.67;101176.38;676977;29;3863;-82
2021/08/23 00:08:05;;;;;;;12.40;11.03;;;;;;;16.61;87.76;101175.59;679291;28;4339;-82
2021/08/23 00:08:27;;;;;;;12.55;11.25;;;;;;;16.62;87.79;101180.00;681043;28;1754;-82
2021/08/23 00:08:48;;;;;;;12.63;11.00;;;;;;;16.80;87.29;101178.72;677003;29;1360;-82
2021/08/23 00:09:08;;;;;;;13.13;10.68;;;;;;;16.80;86.61;101172.56;674865;29;1265;-82
2021/08/23 00:09:28;;;;;;;12.70;11.40;;;;;;;16.77;86.66;101172.66;678561;29;1133;-82
2021/08/23 00:09:50;;;;;;;13.85;11.52;;;;;;;16.74;86.78;101178.88;675981;29;1286;-82
2021/08/23 00:10:11;;;;;;;12.77;11.20;;;;;;;16.72;86.95;101178.03;677164;29;899;-82
2021/08/23 00:10:32;;;;;;;13.07;11.00;;;;;;;16.71;87.03;101173.63;677679;29;3799;-83
2021/08/23 00:10:52;;;;;;;12.90;10.93;;;;;;;16.68;87.20;101171.94;676981;29;3694;-82
2021/08/23 00:11:15;;;;;;;11.93;10.70;;;;;;;16.65;87.72;101177.28;678379;28;4329;-82
2021/08/23 00:11:36;;;;;;;12.00;10.70;;;;;;;16.71;87.24;101178.06;676143;29;1561;-82
2021/08/23 00:11:57;;;;;;;13.33;10.80;;;;;;;16.67;87.35;101172.00;677120;29;1162;-83
2021/08/23 00:12:17;;;;;;;12.10;10.65;;;;;;;16.64;87.23;101177.31;678256;29;1015;-82
2021/08/23 00:12:38;;;;;;;11.70;10.50;;;;;;;16.60;87.37;101175.66;678089;29;1329;-82
2021/08/23 00:12:58;;;;;;;11.80;10.60;;;;;;;16.58;87.65;101174.81;677423;29;1281;-82
2021/08/23 00:13:19;;;;;;;11.80;10.60;;;;;;;16.56;87.68;101173.97;677765;29;1149;-83
2021/08/23 00:13:39;;;;;;;12.27;10.97;;;;;;;16.53;87.90;101174.91;677580;28;3864;-82
2021/08/23 00:14:00;;;;;;;12.35;11.15;;;;;;;16.52;87.96;101167.91;678424;29;1456;-82
2021/08/23 00:14:20;;;;;;;12.00;10.50;;;;;;;16.50;87.69;101175.88;679678;28;4305;-82
2021/08/23 00:14:40;;;;;;;12.37;10.17;;;;;;;16.50;87.60;101169.69;682935;28;966;-83
2021/08/23 00:15:01;;;;;;;11.40;9.90;;;;;;;16.48;88.14;101172.38;683017;28;1146;-83
2021/08/23 00:15:21;;;;;;;11.83;9.93;;;;;;;16.48;88.24;101176.78;683985;28;1431;-82
2021/08/23 00:15:41;;;;;;;12.13;9.70;;;;;;;16.47;88.37;101175.03;679643;29;1081;-82
2021/08/23 00:16:02;;;;;;;10.73;9.40;;;;;;;16.47;88.31;101175.03;676723;29;1138;-82
2021/08/23 00:16:22;;;;;;;12.05;9.45;;;;;;;16.46;89.60;101175.94;677281;29;3152;-83
2021/08/23 00:16:43;;;;;;;12.07;9.33;;;;;;;16.42;89.58;101176.91;680004;28;3487;-82
2021/08/23 00:17:03;;;;;;;10.60;9.23;;;;;;;16.41;89.41;101181.31;680919;28;4363;-82
2021/08/23 00:17:23;;;;;;;10.70;9.53;;;;;;;16.40;89.38;101174.31;683257;28;1500;-82
2021/08/23 00:17:44;;;;;;;10.70;9.60;;;;;;;16.40;89.04;101178.72;683419;28;1136;-83
2021/08/23 00:18:04;;;;;;;10.95;8.63;;;;;;;16.42;88.54;101177.78;684579;28;1167;-83
2021/08/23 00:18:25;;;;;;;10.17;8.97;;;;;;;16.42;89.22;101176.91;685406;28;892;-82
2021/08/23 00:18:47;;;;;;;11.43;9.23;;;;;;;16.41;89.19;101180.47;684343;28;1192;-82
2021/08/23 00:19:07;;;;;;;12.55;9.25;;;;;;;16.39;89.55;101179.63;680740;28;1165;-83
2021/08/23 00:19:28;;;;;;;11.57;9.50;;;;;;;16.37;89.75;101171.72;685210;28;3451;-82
2021/08/23 00:19:48;;;;;;;12.43;9.50;;;;;;;16.37;89.78;101173.50;686570;28;3769;-82
2021/08/23 00:20:13;;;;;;;12.53;9.50;;;;;;;16.36;89.53;101177.03;686321;28;4396;-82
2021/08/23 00:20:43;;;;;;;11.70;10.45;;;;;;;16.34;89.51;101179.72;685440;28;968;-82
2021/08/23 00:21:10;;;;;;;12.63;10.27;;;;;;;16.33;89.95;101176.19;686023;28;1263;-82
2021/08/23 00:21:40;;;;;;;10.32;9.02;;;;;;;16.33;89.12;101173.56;684739;28;1096;-82
2021/08/23 00:22:19;;;;;;;9.90;8.90;;;;;;;16.37;89.33;101176.16;682616;28;1413;-82
2021/08/23 00:22:51;;;;;;;13.38;10.85;;;;;;;16.62;87.85;101174.72;679413;28;4123;-82
2021/08/23 00:23:16;;;;;;;12.90;11.02;;;;;;;16.62;87.45;101176.50;679335;28;4389;-82
2021/08/23 00:23:37;;;;;;;11.98;10.68;;;;;;;16.60;87.38;101175.66;679463;29;1059;-82
2021/08/23 00:24:17;;;;;;;11.98;10.23;;;;;;;16.58;87.17;101173.03;679779;29;1219;-82
2021/08/23 00:24:37;;;;;;;10.55;8.93;;;;;;;16.54;88.49;101173.16;681112;28;1387;-82
2021/08/23 00:25:00;;;;;;;10.33;9.03;;;;;;;16.49;89.31;101176.75;682599;28;1431;-82
2021/08/23 00:25:21;;;;;;;11.48;9.23;;;;;;;16.45;89.15;101166.31;683147;28;3534;-82
2021/08/23 00:25:42;;;;;;;12.23;9.27;;;;;;;16.43;89.01;101176.88;681109;28;2120;-82
2021/08/23 00:26:03;;;;;;;11.18;8.80;;;;;;;16.41;89.51;101175.19;683977;28;4441;-82
2021/08/23 00:26:23;;;;;;;9.93;8.82;;;;;;;16.37;89.64;101174.38;682354;28;1473;-82
2021/08/23 00:26:44;;;;;;;11.17;9.40;;;;;;;16.37;89.79;101173.50;682257;28;1151;-82
2021/08/23 00:27:04;;;;;;;11.65;9.27;;;;;;;16.34;89.56;101170.03;682181;28;1255;-82
2021/08/23 00:27:26;;;;;;;12.40;9.63;;;;;;;16.33;89.60;101170.91;682887;28;1464;-82
2021/08/23 00:27:47;;;;;;;10.98;8.98;;;;;;;16.33;88.74;101165.63;683754;28;1229;-82
2021/08/23 00:28:08;;;;;;;10.50;8.75;;;;;;;16.36;88.48;101166.50;682848;28;1205;-82
2021/08/23 00:28:29;;;;;;;10.38;8.35;;;;;;;16.38;88.76;101169.94;681221;28;3485;-82
2021/08/23 00:28:49;;;;;;;11.10;8.97;;;;;;;16.38;88.78;101167.31;680266;28;4035;-82
2021/08/23 00:29:10;;;;;;;10.75;8.60;;;;;;;16.39;88.12;101161.16;680054;28;5364;-82
2021/08/23 00:29:30;;;;;;;10.73;8.80;;;;;;;16.41;88.30;101164.63;682803;28;1339;-82
2021/08/23 00:29:51;;;;;;;12.80;9.63;;;;;;;16.38;88.64;101165.56;683041;28;1101;-82
2021/08/23 00:30:13;;;;;;;14.50;10.63;;;;;;;16.37;88.54;101168.25;682456;28;1222;-82
2021/08/23 00:30:35;;;;;;;11.27;9.45;;;;;;;16.34;89.08;101164.75;685534;28;1036;-82
2021/08/23 00:30:55;;;;;;;11.15;9.40;;;;;;;16.33;89.26;101167.41;685432;28;1179;-82
2021/08/23 00:31:16;;;;;;;10.55;9.40;;;;;;;16.33;88.66;101170.91;682543;28;1911;-82
2021/08/23 00:31:37;;;;;;;11.27;8.83;;;;;;;16.33;88.60;101163.00;685042;28;3590;-82
2021/08/23 00:31:58;;;;;;;12.73;10.15;;;;;;;16.33;89.06;101168.28;683951;28;1460;-82
2021/08/23 00:32:18;;;;;;;12.67;10.63;;;;;;;16.32;89.27;101174.47;681665;28;4398;-82
2021/08/23 00:32:39;;;;;;;12.15;10.77;;;;;;;16.32;88.91;101171.84;680714;28;1307;-82
2021/08/23 00:33:00;;;;;;;12.77;10.80;;;;;;;16.32;88.49;101166.56;682243;28;1340;-82
2021/08/23 00:33:20;;;;;;;13.10;10.87;;;;;;;16.36;88.38;101171.78;682467;28;1148;-82
2021/08/23 00:33:40;;;;;;;11.50;10.30;;;;;;;16.33;88.84;101163.00;683313;28;1086;-82
2021/08/23 00:34:01;;;;;;;12.10;10.90;;;;;;;16.33;88.99;101172.69;685134;28;1267;-82
2021/08/23 00:34:21;;;;;;;11.73;10.52;;;;;;;16.34;88.82;101171.81;681921;28;3797;-82
2021/08/23 00:34:42;;;;;;;10.93;9.80;;;;;;;16.34;89.17;101169.16;678495;28;1263;-83
2021/08/23 00:35:02;;;;;;;11.32;9.02;;;;;;;16.32;89.49;101163.03;676060;29;5282;-82
2021/08/23 00:35:23;;;;;;;10.73;9.17;;;;;;;16.30;89.57;101171.00;675074;29;1564;-82
2021/08/23 00:35:44;;;;;;;10.52;9.13;;;;;;;16.30;89.53;101171.00;683138;28;1323;-82
2021/08/23 00:36:04;;;;;;;10.40;8.57;;;;;;;16.30;88.96;101171.00;681826;28;1108;-83
2021/08/23 00:36:24;;;;;;;9.40;8.10;;;;;;;16.33;88.46;101168.28;679164;29;1192;-82
2021/08/23 00:36:45;;;;;;;10.87;8.23;;;;;;;16.34;88.81;101167.38;676063;29;1184;-82
2021/08/23 00:37:05;;;;;;;11.25;9.02;;;;;;;16.34;89.00;101169.16;680847;28;1258;-82
2021/08/23 00:37:25;;;;;;;11.83;9.47;;;;;;;16.33;89.07;101165.63;678959;28;3219;-82
2021/08/23 00:37:46;;;;;;;10.25;8.82;;;;;;;16.36;88.64;101175.25;679881;28;1734;-82
2021/08/23 00:38:08;;;;;;;10.43;9.33;;;;;;;16.34;89.45;101164.75;681825;28;4339;-82
2021/08/23 00:38:28;;;;;;;10.60;9.27;;;;;;;16.33;89.61;101168.28;677082;29;1300;-82
2021/08/23 00:38:49;;;;;;;11.65;9.30;;;;;;;16.30;89.41;101168.34;681028;28;1244;-82
2021/08/23 00:39:13;;;;;;;11.57;9.67;;;;;;;16.28;89.35;101170.16;680037;28;1254;-82
2021/08/23 00:39:35;;;;;;;10.98;9.55;;;;;;;16.29;89.15;101171.88;680231;28;1623;-82
2021/08/23 00:39:56;;;;;;;10.18;8.65;;;;;;;16.26;89.40;101171.94;681893;28;1284;-82
2021/08/23 00:40:19;;;;;;;10.83;8.67;;;;;;;16.25;89.70;101170.19;683625;28;3633;-82
2021/08/23 00:40:39;;;;;;;11.20;9.32;;;;;;;16.24;89.57;101172.88;680091;28;1570;-82
2021/08/23 00:40:59;;;;;;;11.00;9.73;;;;;;;16.23;89.43;101173.81;677000;29;1396;-82
2021/08/23 00:41:20;;;;;;;11.47;9.70;;;;;;;16.23;89.15;101165.88;677199;29;4325;-82
2021/08/23 00:41:41;;;;;;;10.43;9.20;;;;;;;16.25;88.70;101167.56;676903;29;1593;-82
2021/08/23 00:42:03;;;;;;;10.55;9.25;;;;;;;16.24;88.81;101164.97;679411;28;1300;-82
2021/08/23 00:42:23;;;;;;;12.27;9.52;;;;;;;16.25;88.88;101175.47;676408;29;1233;-82
2021/08/23 00:42:44;;;;;;;12.67;9.43;;;;;;;16.23;89.40;101174.66;678868;28;1148;-83
2021/08/23 00:43:06;;;;;;;13.07;9.50;;;;;;;16.23;88.96;101165.88;677208;29;1926;-82
2021/08/23 00:43:26;;;;;;;11.48;9.15;;;;;;;16.26;88.51;101164.03;676790;29;3759;-82
2021/08/23 00:43:46;;;;;;;10.55;9.38;;;;;;;16.29;88.97;101171.03;677033;29;1520;-82
2021/08/23 00:44:07;;;;;;;11.47;10.27;;;;;;;16.23;89.26;101172.03;679205;28;4517;-82
2021/08/23 00:44:28;;;;;;;12.82;10.85;;;;;;;16.18;89.55;101171.22;682263;28;1319;-82
2021/08/23 00:44:49;;;;;;;11.63;9.63;;;;;;;16.16;89.78;101170.41;682725;28;1332;-82
2021/08/23 00:45:09;;;;;;;11.05;9.35;;;;;;;16.17;89.17;101177.41;682375;28;1283;-83
2021/08/23 00:45:30;;;;;;;11.93;9.77;;;;;;;16.14;89.48;101169.56;682812;28;1232;-82
2021/08/23 00:45:50;;;;;;;11.13;9.30;;;;;;;16.14;89.65;101172.19;683854;28;2075;-82
2021/08/23 00:46:11;;;;;;;12.10;9.77;;;;;;;16.11;89.83;101173.13;680440;28;3346;-82
2021/08/23 00:46:32;;;;;;;12.33;10.27;;;;;;;16.12;89.82;101166.09;679699;29;1312;-82
2021/08/23 00:46:52;;;;;;;11.52;10.10;;;;;;;16.10;89.89;101171.41;679105;28;1427;-82
2021/08/23 00:47:13;;;;;;;11.23;9.95;;;;;;;16.10;89.87;101175.78;679332;28;4451;-83
2021/08/23 00:47:33;;;;;;;12.27;10.13;;;;;;;16.06;90.03;101168.84;679705;28;1153;-82
2021/08/23 00:47:53;;;;;;;11.37;10.10;;;;;;;16.03;90.16;101174.19;682888;28;1621;-82
2021/08/23 00:48:14;;;;;;;12.80;10.93;;;;;;;16.02;90.41;101172.44;682803;28;1149;-82
2021/08/23 00:48:35;;;;;;;12.63;10.33;;;;;;;16.03;90.44;101168.91;677752;29;1513;-82
2021/08/23 00:48:55;;;;;;;11.90;10.10;;;;;;;16.03;89.90;101174.19;679377;28;1376;-82
2021/08/23 00:49:15;;;;;;;13.52;10.93;;;;;;;16.00;90.03;101172.47;678073;29;3987;-82
2021/08/23 00:49:36;;;;;;;12.90;10.20;;;;;;;16.00;89.87;101176.00;677234;29;1690;-82
2021/08/23 00:49:56;;;;;;;10.48;9.20;;;;;;;16.03;89.69;101174.19;677264;29;1408;-82
2021/08/23 00:50:18;;;;;;;10.90;9.63;;;;;;;16.05;90.03;101172.38;676334;29;4333;-82
2021/08/23 00:50:38;;;;;;;11.73;10.23;;;;;;;16.02;90.42;101178.59;676961;29;1083;-82
2021/08/23 00:51:01;;;;;;;12.23;10.60;;;;;;;16.00;90.10;101170.72;677988;29;1108;-82
2021/08/23 00:51:21;;;;;;;11.30;9.98;;;;;;;16.00;89.84;101176.00;679663;29;1181;-82
2021/08/23 00:51:42;;;;;;;10.90;9.80;;;;;;;16.00;89.91;101172.47;679134;29;1128;-82
2021/08/23 00:52:04;;;;;;;11.65;10.20;;;;;;;15.99;89.93;101166.34;679227;28;3408;-82
2021/08/23 00:52:25;;;;;;;11.63;10.32;;;;;;;15.95;90.09;101176.94;679251;28;3602;-82
2021/08/23 00:52:45;;;;;;;12.00;10.32;;;;;;;15.90;90.54;101169.13;676636;29;1197;-83
2021/08/23 00:53:05;;;;;;;11.93;10.10;;;;;;;15.89;90.31;101170.03;676363;28;4474;-82
2021/08/23 00:53:26;;;;;;;12.90;10.33;;;;;;;15.87;90.35;101171.84;677431;29;1197;-82
2021/08/23 00:53:47;;;;;;;12.07;10.60;;;;;;;15.86;90.30;101170.09;680757;29;1078;-82
2021/08/23 00:54:08;;;;;;;12.90;10.48;;;;;;;15.86;90.78;101178.00;680140;28;1161;-82
2021/08/23 00:54:28;;;;;;;11.93;10.37;;;;;;;15.85;91.02;101176.25;680250;28;1223;-82
2021/08/23 00:54:49;;;;;;;13.10;10.63;;;;;;;15.85;91.08;101183.31;682806;28;1248;-82
2021/08/23 00:55:09;;;;;;;13.17;10.67;;;;;;;15.85;90.62;101176.25;683447;28;3349;-82
2021/08/23 00:55:33;;;;;;;11.05;9.77;;;;;;;15.90;90.36;101173.56;685447;28;1125;-82
2021/08/23 00:55:53;;;;;;;11.05;9.70;;;;;;;15.89;90.44;101180.56;681623;28;1424;-82
2021/08/23 00:56:15;;;;;;;10.98;9.77;;;;;;;15.92;90.26;101182.28;679333;28;4421;-82
2021/08/23 00:56:36;;;;;;;11.40;10.20;;;;;;;15.92;90.16;101179.66;681632;28;1571;-82
2021/08/23 00:56:57;;;;;;;12.82;10.38;;;;;;;15.91;90.80;101180.53;681376;28;1193;-82
2021/08/23 00:57:18;;;;;;;13.20;11.05;;;;;;;15.86;90.76;101177.13;679239;28;1257;-82
2021/08/23 00:57:40;;;;;;;11.70;10.50;;;;;;;15.85;90.78;101181.53;682277;28;1233;-82
2021/08/23 00:58:01;;;;;;;11.38;10.15;;;;;;;15.85;91.00;101176.25;680821;28;3138;-82
2021/08/23 00:58:21;;;;;;;11.50;10.30;;;;;;;15.83;91.19;101178.91;684596;28;3842;-82
2021/08/23 00:58:41;;;;;;;12.32;10.35;;;;;;;15.81;91.05;101174.56;683208;28;1352;-82
2021/08/23 00:59:08;;;;;;;12.17;10.40;;;;;;;15.81;91.01;101182.47;682894;28;4506;-82
2021/08/23 00:59:31;;;;;;;11.55;10.35;;;;;;;15.84;90.54;101185.09;683220;28;1186;-83
2021/08/23 00:59:52;;;;;;;11.55;10.35;;;;;;;15.83;90.87;101173.66;686664;28;943;-83
2021/08/23 01:00:13;;;;;;;12.35;10.65;;;;;;;15.79;90.85;101168.44;679933;28;1413;-82
2021/08/23 01:00:38;;;;;;;12.45;10.93;;;;;;;15.78;90.73;101177.22;680066;28;1148;-82
2021/08/23 01:01:03;;;;;;;12.85;11.07;;;;;;;15.78;90.92;101174.59;678337;29;3247;-82
2021/08/23 01:01:48;;;;;;;12.77;10.38;;;;;;;15.80;90.67;101181.63;677549;29;1213;-82
2021/08/23 01:02:21;;;;;;;12.27;10.60;;;;;;;15.76;90.85;101177.28;678169;29;4345;-83
2021/08/23 01:02:48;;;;;;;11.35;10.13;;;;;;;15.71;91.11;101173.84;681106;28;1152;-82
2021/08/23 01:03:17;;;;;;;11.40;10.18;;;;;;;15.65;91.29;101174.81;679113;29;1128;-82
2021/08/23 01:03:50;;;;;;;10.60;9.50;;;;;;;15.68;91.27;101180.94;680771;28;1118;-82
2021/08/23 01:04:20;;;;;;;12.40;10.95;;;;;;;15.66;91.38;101170.44;684489;28;3457;-82
2021/08/23 01:04:54;;;;;;;13.00;11.18;;;;;;;15.65;91.47;101172.19;685814;28;1446;-82
2021/08/23 01:05:27;;;;;;;13.23;11.00;;;;;;;15.64;91.59;101178.34;685575;28;5054;-82
2021/08/23 01:05:48;;;;;;;12.07;10.48;;;;;;;15.68;91.09;101175.69;685355;28;1944;-82
2021/08/23 01:06:10;;;;;;;12.80;10.77;;;;;;;15.65;91.36;101169.53;681527;28;1216;-82
2021/08/23 01:06:31;;;;;;;12.48;10.88;;;;;;;15.66;91.82;101176.56;680286;28;1210;-82
2021/08/23 01:06:53;;;;;;;12.23;10.98;;;;;;;15.64;91.80;101173.06;679581;28;2643;-82
2021/08/23 01:07:16;;;;;;;11.80;10.60;;;;;;;15.64;91.67;101169.56;679287;29;3811;-83
2021/08/23 01:07:46;;;;;;;11.70;10.45;;;;;;;15.68;91.07;101176.53;676691;29;1534;-82
2021/08/23 01:08:37;;;;;;;12.52;10.07;;;;;;;15.69;91.20;101174.75;680364;28;4311;-82
2021/08/23 01:09:02;;;;;;;11.90;10.68;;;;;;;15.71;90.74;101178.25;683609;28;1077;-83
2021/08/23 01:09:30;;;;;;;11.57;10.38;;;;;;;15.71;90.65;101179.09;685342;28;1088;-83
2021/08/23 01:09:57;;;;;;;10.88;9.70;;;;;;;15.73;90.63;101184.34;681473;29;1893;-82
2021/08/23 01:10:27;;;;;;;11.52;10.05;;;;;;;15.72;91.00;101180.00;680962;28;1114;-82
2021/08/23 01:10:50;;;;;;;11.90;10.60;;;;;;;15.67;91.18;101185.31;682855;28;1207;-82
2021/08/23 01:11:12;;;;;;;13.35;11.05;;;;;;;15.65;91.39;101174.81;684790;28;4373;-83
2021/08/23 01:11:47;;;;;;;13.20;10.80;;;;;;;15.61;91.54;101178.41;681880;28;1455;-83
2021/08/23 01:12:09;;;;;;;12.55;10.95;;;;;;;15.59;91.51;101171.41;685518;28;1164;-82
2021/08/23 01:12:30;;;;;;;12.40;11.10;;;;;;;15.57;91.52;101174.09;678004;29;1406;-82
2021/08/23 01:12:51;;;;;;;12.65;11.35;;;;;;;15.56;91.60;101179.38;678551;29;3057;-82
2021/08/23 01:13:12;;;;;;;12.18;10.88;;;;;;;15.53;91.95;101180.31;677853;29;3534;-83
2021/08/23 01:13:33;;;;;;;12.77;11.10;;;;;;;15.51;91.99;101176.84;683702;28;1066;-83
2021/08/23 01:13:54;;;;;;;12.85;11.48;;;;;;;15.47;92.30;101172.50;682452;28;1550;-82
2021/08/23 01:14:14;;;;;;;12.97;11.57;;;;;;;15.47;92.08;101180.41;682395;28;4377;-82
2021/08/23 01:14:37;;;;;;;12.80;11.20;;;;;;;15.47;92.13;101175.16;683696;28;1093;-82
2021/08/23 01:14:58;;;;;;;13.63;11.32;;;;;;;15.47;91.81;101175.16;686139;28;1070;-82
2021/08/23 01:15:18;;;;;;;12.68;11.38;;;;;;;15.47;92.21;101175.16;686750;28;1357;-82
2021/08/23 01:15:40;;;;;;;12.80;11.50;;;;;;;15.44;92.31;101175.22;685691;28;1201;-82
2021/08/23 01:16:00;;;;;;;13.73;11.60;;;;;;;15.43;92.18;101176.09;684286;28;3855;-82
2021/08/23 01:16:21;;;;;;;13.40;11.50;;;;;;;15.42;92.32;101180.47;683993;28;1239;-83
2021/08/23 01:16:41;;;;;;;13.07;11.40;;;;;;;15.41;92.57;101169.97;679661;29;1370;-83
2021/08/23 01:17:01;;;;;;;13.38;11.63;;;;;;;15.41;92.51;101177.88;679287;29;1369;-82
2021/08/23 01:17:22;;;;;;;12.27;10.93;;;;;;;15.39;92.53;101184.94;680347;28;4426;-83
2021/08/23 01:17:42;;;;;;;13.35;11.43;;;;;;;15.38;92.52;101181.44;679968;29;1104;-83
2021/08/23 01:18:04;;;;;;;14.70;11.63;;;;;;;15.40;92.43;101173.53;677698;29;1126;-83
2021/08/23 01:18:25;;;;;;;12.57;11.10;;;;;;;15.40;92.33;101184.06;679450;28;1039;-82
2021/08/23 01:18:46;;;;;;;12.20;10.60;;;;;;;15.42;92.18;101176.97;684417;28;3332;-82
2021/08/23 01:19:09;;;;;;;12.33;11.00;;;;;;;15.44;92.29;101180.47;685725;28;4095;-82
2021/08/23 01:19:31;;;;;;;13.30;11.27;;;;;;;15.41;92.36;101176.13;687775;28;1269;-83
2021/08/23 01:19:56;;;;;;;12.50;10.98;;;;;;;15.38;92.54;101188.47;683911;28;1338;-82
2021/08/23 01:20:17;;;;;;;12.38;11.07;;;;;;;15.34;92.65;101187.66;680759;28;4365;-82
2021/08/23 01:20:42;;;;;;;12.15;10.85;;;;;;;15.32;92.68;101187.66;678551;29;1134;-82
2021/08/23 01:21:05;;;;;;;12.90;11.20;;;;;;;15.36;92.44;101185.00;680901;28;1070;-82
2021/08/23 01:21:29;;;;;;;13.68;11.55;;;;;;;15.32;92.78;101187.66;678911;29;1344;-82
2021/08/23 01:21:52;;;;;;;12.70;11.40;;;;;;;15.30;92.69;101184.19;681002;28;3680;-82
2021/08/23 01:22:13;;;;;;;13.05;11.43;;;;;;;15.27;92.62;101189.53;681557;28;1514;-83
2021/08/23 01:22:38;;;;;;;12.18;10.98;;;;;;;15.29;92.33;101187.72;681751;29;1378;-82
2021/08/23 01:23:01;;;;;;;14.27;11.27;;;;;;;15.31;92.48;101191.22;683939;28;1121;-83
2021/08/23 01:23:22;;;;;;;13.13;11.45;;;;;;;15.31;92.67;101188.59;685380;28;5122;-82
2021/08/23 01:23:47;;;;;;;12.18;10.88;;;;;;;15.33;92.76;101194.69;685947;28;1540;-83
2021/08/23 01:24:09;;;;;;;12.02;10.77;;;;;;;15.31;92.60;101191.22;684619;28;1270;-82
2021/08/23 01:24:33;;;;;;;12.02;10.82;;;;;;;15.28;92.67;101185.97;686413;28;1276;-82
2021/08/23 01:24:58;;;;;;;12.48;10.93;;;;;;;15.30;92.48;101188.59;686841;28;3478;-83
2021/08/23 01:25:29;;;;;;;13.32;10.45;;;;;;;15.37;92.02;101187.59;683798;28;1254;-82
2021/08/23 01:25:52;;;;;;;11.93;10.57;;;;;;;15.41;92.15;101181.41;681907;28;1975;-82
2021/08/23 01:26:18;;;;;;;12.13;10.82;;;;;;;15.44;91.95;101191.88;685705;28;4341;-82
2021/08/23 01:26:46;;;;;;;12.48;11.18;;;;;;;15.46;91.64;101187.44;685227;28;989;-83
2021/08/23 01:27:09;;;;;;;12.35;10.40;;;;;;;15.50;91.30;101185.63;683655;28;1336;-83
2021/08/23 01:27:34;;;;;;;11.88;10.32;;;;;;;15.54;91.10;101189.94;678772;29;1269;-83
2021/08/23 01:28:14;;;;;;;11.75;10.48;;;;;;;15.59;90.86;101185.47;681058;28;2175;-82
2021/08/23 01:28:48;;;;;;;12.25;10.55;;;;;;;15.59;91.15;101182.84;681401;28;1456;-82
2021/08/23 01:29:28;;;;;;;12.35;10.70;;;;;;;15.63;90.81;101189.81;680892;28;4326;-82
2021/08/23 01:30:05;;;;;;;11.77;10.57;;;;;;;15.64;90.64;101188.88;687971;28;1081;-82
2021/08/23 01:30:31;;;;;;;13.93;10.75;;;;;;;15.65;90.92;101190.63;686660;28;1161;-82
2021/08/23 01:30:59;;;;;;;12.38;11.07;;;;;;;15.65;91.30;101185.34;682284;28;3668;-82
2021/08/23 01:31:53;;;;;;;13.80;11.50;;;;;;;15.64;91.18;101191.53;683307;28;1301;-82
2021/08/23 01:32:22;;;;;;;11.98;10.52;;;;;;;15.58;91.65;101186.38;683210;28;4484;-82
2021/08/23 01:32:43;;;;;;;12.18;10.88;;;;;;;15.54;91.93;101182.03;682031;28;1222;-82
2021/08/23 01:33:03;;;;;;;12.63;11.33;;;;;;;15.53;91.76;101185.56;682347;28;1338;-83
2021/08/23 01:33:24;;;;;;;12.57;11.18;;;;;;;15.51;92.01;101187.38;684166;28;1151;-82
2021/08/23 01:33:46;;;;;;;12.98;11.02;;;;;;;15.52;91.16;101185.59;680874;28;3632;-83
2021/08/23 01:34:08;;;;;;;13.25;11.38;;;;;;;15.52;91.84;101204.03;678498;29;1463;-82
2021/08/23 01:34:29;;;;;;;13.65;12.18;;;;;;;15.51;92.01;101182.09;679493;29;2707;-83
2021/08/23 01:34:53;;;;;;;14.50;12.73;;;;;;;15.49;92.11;101181.25;679473;29;1421;-83
2021/08/23 01:35:13;;;;;;;14.88;12.75;;;;;;;15.48;92.23;101187.44;678656;29;4312;-83
2021/08/23 01:35:34;;;;;;;15.03;12.27;;;;;;;15.49;91.71;101189.16;682672;28;1158;-82
2021/08/23 01:35:55;;;;;;;14.35;12.25;;;;;;;15.50;91.90;101186.50;682635;28;1391;-82
2021/08/23 01:36:16;;;;;;;14.50;12.13;;;;;;;15.49;92.10;101189.16;681481;28;1033;-82
2021/08/23 01:36:37;;;;;;;13.90;12.30;;;;;;;15.48;92.56;101203.25;682154;28;3383;-82
2021/08/23 01:36:57;;;;;;;14.88;12.88;;;;;;;15.46;92.70;101197.13;684178;28;3685;-83
2021/08/23 01:37:18;;;;;;;14.33;12.67;;;;;;;15.45;92.77;101188.34;684057;28;1200;-82
2021/08/23 01:37:38;;;;;;;14.05;12.20;;;;;;;15.46;92.47;101181.31;684873;28;904;-82
2021/08/23 01:37:59;;;;;;;14.27;11.80;;;;;;;15.48;91.97;101184.81;684138;28;1077;-82
2021/08/23 01:38:19;;;;;;;13.13;11.53;;;;;;;15.49;92.26;101190.03;682952;28;4304;-83
2021/08/23 01:38:40;;;;;;;13.93;11.90;;;;;;;15.49;92.17;101183.88;683812;28;1569;-82
2021/08/23 01:39:01;;;;;;;13.47;11.77;;;;;;;15.49;92.15;101183.88;684521;28;1148;-82
2021/08/23 01:39:21;;;;;;;13.63;11.50;;;;;;;15.51;91.88;101190.00;682724;28;1353;-82
2021/08/23 01:39:42;;;;;;;12.32;11.02;;;;;;;15.55;91.66;101190.81;683359;28;3733;-82
2021/08/23 01:40:05;;;;;;;11.50;10.30;;;;;;;15.59;91.35;101195.13;683140;28;1287;-82
2021/08/23 01:40:26;;;;;;;12.57;10.10;;;;;;;15.60;91.18;101189.88;683663;28;1489;-82
2021/08/23 01:40:46;;;;;;;12.23;10.25;;;;;;;15.62;91.13;101184.56;681157;28;1292;-82
2021/08/23 01:41:09;;;;;;;12.00;10.77;;;;;;;15.63;91.05;101189.81;681295;28;4323;-82
2021/08/23 01:41:29;;;;;;;12.85;11.23;;;;;;;15.63;90.83;101187.16;684481;28;956;-83
2021/08/23 01:41:50;;;;;;;14.13;11.07;;;;;;;15.63;90.79;101195.06;683656;28;888;-83
2021/08/23 01:42:10;;;;;;;12.37;10.77;;;;;;;15.65;91.18;101195.03;684296;28;1144;-82
2021/08/23 01:42:31;;;;;;;12.82;11.43;;;;;;;15.64;91.51;101188.03;684281;28;3367;-83
2021/08/23 01:42:52;;;;;;;12.70;11.40;;;;;;;15.62;91.54;101189.84;686302;28;2302;-82
2021/08/23 01:43:13;;;;;;;12.82;11.52;;;;;;;15.62;91.55;101195.09;684455;28;1437;-82
2021/08/23 01:43:34;;;;;;;12.88;11.55;;;;;;;15.60;91.81;101192.50;687169;28;1346;-82
2021/08/23 01:43:55;;;;;;;13.82;12.13;;;;;;;15.59;91.86;101190.75;686936;28;1105;-82
2021/08/23 01:44:15;;;;;;;13.60;11.93;;;;;;;15.58;92.08;101193.41;681110;28;4357;-82
2021/08/23 01:44:36;;;;;;;16.20;12.03;;;;;;;15.55;91.97;101193.44;681702;29;1102;-83
2021/08/23 01:44:56;;;;;;;14.18;11.60;;;;;;;15.54;91.82;101189.94;682033;28;1289;-82
2021/08/23 01:45:16;;;;;;;12.97;11.00;;;;;;;15.52;91.90;101194.41;682479;28;1174;-82
2021/08/23 01:45:37;;;;;;;12.27;11.03;;;;;;;15.50;92.36;101196.16;678074;29;4058;-82
2021/08/23 01:45:57;;;;;;;13.53;11.57;;;;;;;15.48;92.33;101185.66;678880;29;1124;-83
2021/08/23 01:46:17;;;;;;;13.77;12.33;;;;;;;15.47;92.70;101185.69;678678;29;1074;-83
2021/08/23 01:46:40;;;;;;;14.57;12.65;;;;;;;15.47;92.65;101196.22;681893;29;1617;-82
2021/08/23 01:47:00;;;;;;;14.43;12.45;;;;;;;15.45;93.08;101198.00;684493;28;1482;-83
2021/08/23 01:47:21;;;;;;;13.73;11.97;;;;;;;15.44;93.07;101194.50;681077;28;4365;-82
2021/08/23 01:47:41;;;;;;;13.83;12.30;;;;;;;15.44;93.28;101191.00;676676;29;1123;-83
2021/08/23 01:48:01;;;;;;;15.55;12.32;;;;;;;15.42;93.14;101193.66;677130;29;1137;-82
2021/08/23 01:48:23;;;;;;;15.30;11.97;;;;;;;15.41;93.39;101191.03;677295;29;3572;-83
2021/08/23 01:48:43;;;;;;;17.48;12.85;;;;;;;15.40;93.64;101191.97;676676;29;3861;-82
2021/08/23 01:49:07;;;;;;;15.15;13.00;;;;;;;15.40;93.65;101191.97;678816;28;1726;-82